createdAt,value
2019-04-20T00:00:14.647Z,0.00
2019-04-20T00:01:19.977Z,0.00
2019-04-20T00:02:17.735Z,0.00
2019-04-20T00:03:15.785Z,0.00
2019-04-20T00:04:20.575Z,0.00
2019-04-20T00:05:15.050Z,0.00
2019-04-20T00:06:15.268Z,0.00
2019-04-20T00:07:14.593Z,0.00
2019-04-20T00:08:20.129Z,0.00
2019-04-20T00:09:20.568Z,0.00
2019-04-20T00:10:18.522Z,0.00
2019-04-20T00:11:23.195Z,0.00
2019-04-20T00:12:20.250Z,0.00
2019-04-20T00:13:24.048Z,0.00
2019-04-20T00:14:19.028Z,0.00
2019-04-20T00:15:15.588Z,0.00
2019-04-20T00:16:14.771Z,0.00
2019-04-20T00:17:15.820Z,0.00
2019-04-20T00:18:15.158Z,0.00
2019-04-20T00:19:22.564Z,0.00
2019-04-20T00:20:20.755Z,0.00
2019-04-20T00:21:16.431Z,0.00
2019-04-20T00:22:15.635Z,0.00
2019-04-20T00:23:19.859Z,0.00
2019-04-20T00:24:21.099Z,0.00
2019-04-20T00:25:20.065Z,0.00
2019-04-20T00:26:22.116Z,0.00
2019-04-20T00:27:40.403Z,0.00
2019-04-20T00:28:34.285Z,0.00
2019-04-20T00:29:29.445Z,0.00
2019-04-20T00:30:32.536Z,0.00
2019-04-20T00:31:29.678Z,0.00
2019-04-20T00:32:23.253Z,0.00
2019-04-20T00:33:28.366Z,0.00
2019-04-20T00:34:24.152Z,0.00
2019-04-20T00:35:14.743Z,0.00
2019-04-20T00:36:14.301Z,0.00
2019-04-20T00:37:15.057Z,0.00
2019-04-20T00:38:14.247Z,0.00
2019-04-20T00:39:15.463Z,0.00
2019-04-20T00:40:15.072Z,0.00
2019-04-20T00:41:17.074Z,0.00
2019-04-20T00:42:15.960Z,0.00
2019-04-20T00:43:22.122Z,0.00
2019-04-20T00:44:21.927Z,0.00
2019-04-20T00:45:20.279Z,0.00
2019-04-20T00:46:23.170Z,0.00
2019-04-20T00:47:27.490Z,0.00
2019-04-20T00:48:22.591Z,0.00
2019-04-20T00:49:30.504Z,0.00
2019-04-20T00:50:28.341Z,0.00
2019-04-20T00:51:35.336Z,0.00
2019-04-20T00:52:47.017Z,0.00
2019-04-20T00:53:23.826Z,0.00
2019-04-20T00:54:14.057Z,0.00
2019-04-20T00:55:14.952Z,0.00
2019-04-20T00:56:14.158Z,0.00
2019-04-20T00:57:24.791Z,0.00
2019-04-20T00:58:20.099Z,0.00
2019-04-20T00:59:25.363Z,0.00
2019-04-20T01:00:31.062Z,0.00
2019-04-20T01:01:37.514Z,0.00
2019-04-20T01:02:27.529Z,0.00
2019-04-20T01:04:44.957Z,0.00
2019-04-20T01:05:46.427Z,0.00
2019-04-20T01:06:41.190Z,0.00
2019-04-20T01:07:32.796Z,0.00
2019-04-20T01:08:25.404Z,0.00
2019-04-20T01:09:24.625Z,0.00
2019-04-20T01:10:28.398Z,0.00
2019-04-20T01:11:30.908Z,0.00
2019-04-20T01:12:28.001Z,0.00
2019-04-20T01:13:26.668Z,0.00
2019-04-20T01:14:35.819Z,0.00
2019-04-20T01:15:36.933Z,0.00
2019-04-20T01:16:35.947Z,0.00
2019-04-20T01:17:24.010Z,0.00
2019-04-20T01:18:24.002Z,0.00
2019-04-20T01:19:23.980Z,0.00
2019-04-20T01:20:26.403Z,0.00
2019-04-20T01:21:27.150Z,0.00
2019-04-20T01:22:27.299Z,0.00
2019-04-20T01:23:31.200Z,0.00
2019-04-20T01:24:30.893Z,0.00
2019-04-20T01:25:30.093Z,0.00
2019-04-20T01:26:24.876Z,0.00
2019-04-20T01:27:39.007Z,0.00
2019-04-20T01:28:39.798Z,0.00
2019-04-20T01:29:32.376Z,0.00
2019-04-20T01:30:32.272Z,0.00
2019-04-20T01:31:33.983Z,0.00
2019-04-20T01:32:35.682Z,0.00
2019-04-20T01:33:38.392Z,0.00
2019-04-20T01:34:39.218Z,0.00
2019-04-20T01:35:40.831Z,0.00
2019-04-20T01:36:42.965Z,0.00
2019-04-20T01:37:35.995Z,0.00
2019-04-20T01:38:40.099Z,0.00
2019-04-20T01:39:32.954Z,0.00
2019-04-20T01:40:23.744Z,0.00
2019-04-20T01:41:24.445Z,0.00
2019-04-20T01:42:23.720Z,0.00
2019-04-20T01:43:24.736Z,0.00
2019-04-20T01:44:30.113Z,0.00
2019-04-20T01:45:30.754Z,0.00
2019-04-20T01:46:26.652Z,0.00
2019-04-20T01:47:30.364Z,0.00
2019-04-20T01:48:28.761Z,0.00
2019-04-20T01:49:28.651Z,0.00
2019-04-20T01:50:27.977Z,0.00
2019-04-20T01:51:28.606Z,0.00
2019-04-20T01:52:29.885Z,0.00
2019-04-20T01:53:41.274Z,0.00
2019-04-20T01:54:38.603Z,0.00
2019-04-20T01:55:44.000Z,0.00
2019-04-20T01:56:36.158Z,0.00
2019-04-20T01:57:29.891Z,0.00
2019-04-20T01:58:42.055Z,0.00
2019-04-20T01:59:34.509Z,0.00
2019-04-20T02:00:29.788Z,0.00
2019-04-20T02:01:28.046Z,0.00
2019-04-20T02:02:26.018Z,0.00
2019-04-20T02:03:31.136Z,0.00
2019-04-20T02:04:27.976Z,0.00
2019-04-20T02:05:30.572Z,0.00
2019-04-20T02:06:25.637Z,0.00
2019-04-20T02:07:28.529Z,0.00
2019-04-20T02:08:27.511Z,0.00
2019-04-20T02:09:27.345Z,0.00
2019-04-20T02:10:31.873Z,0.00
2019-04-20T02:11:29.416Z,0.00
2019-04-20T02:12:28.428Z,0.00
2019-04-20T02:13:26.429Z,0.00
2019-04-20T02:14:32.190Z,0.00
2019-04-20T02:15:32.641Z,0.00
2019-04-20T02:16:31.788Z,0.00
2019-04-20T02:17:34.699Z,0.00
2019-04-20T02:18:36.497Z,0.00
2019-04-20T02:19:37.790Z,0.00
2019-04-20T02:20:44.592Z,0.00
2019-04-20T02:21:40.902Z,0.00
2019-04-20T02:23:33.834Z,0.00
2019-04-20T02:24:23.827Z,0.00
2019-04-20T02:25:23.242Z,0.00
2019-04-20T02:26:23.965Z,0.00
2019-04-20T02:27:31.047Z,0.00
2019-04-20T02:28:51.857Z,0.00
2019-04-20T02:29:48.520Z,0.00
2019-04-20T02:30:57.066Z,0.00
2019-04-20T02:32:08.509Z,0.00
2019-04-20T02:33:01.098Z,0.00
2019-04-20T02:33:58.955Z,0.00
2019-04-20T02:34:57.696Z,0.00
2019-04-20T02:36:04.692Z,0.00
2019-04-20T02:38:03.536Z,0.00
2019-04-20T02:39:15.204Z,0.00
2019-04-20T02:40:01.974Z,0.00
2019-04-20T02:42:57.299Z,0.00
2019-04-20T02:44:06.093Z,0.00
2019-04-20T02:45:05.096Z,0.00
2019-04-20T02:45:52.885Z,0.00
2019-04-20T02:47:53.500Z,0.00
2019-04-20T02:49:07.752Z,0.00
2019-04-20T02:50:03.214Z,0.00
2019-04-20T02:51:02.795Z,0.00
2019-04-20T02:51:52.622Z,0.00
2019-04-20T02:53:05.788Z,0.00
2019-04-20T02:54:12.949Z,0.00
2019-04-20T02:55:03.839Z,0.00
2019-04-20T02:55:55.689Z,0.00
2019-04-20T02:57:00.621Z,0.00
2019-04-20T02:59:14.084Z,0.00
2019-04-20T03:00:44.812Z,0.00
2019-04-20T03:01:45.530Z,0.00
2019-04-20T03:02:38.260Z,0.00
2019-04-20T03:03:33.947Z,0.00
2019-04-20T03:05:42.430Z,0.00
2019-04-20T03:06:53.741Z,0.00
2019-04-20T03:07:54.385Z,0.00
2019-04-20T03:08:58.157Z,0.00
2019-04-20T03:09:54.192Z,0.00
2019-04-20T03:10:52.522Z,0.00
2019-04-20T03:12:04.817Z,0.00
2019-04-20T03:12:55.075Z,0.00
2019-04-20T03:13:54.586Z,0.00
2019-04-20T03:14:50.297Z,0.00
2019-04-20T03:15:54.927Z,0.00
2019-04-20T03:16:54.141Z,0.00
2019-04-20T03:17:57.252Z,0.00
2019-04-20T03:18:51.397Z,0.00
2019-04-20T03:19:51.315Z,0.00
2019-04-20T03:20:53.156Z,0.00
2019-04-20T03:21:58.290Z,0.00
2019-04-20T03:23:18.725Z,0.00
2019-04-20T03:24:03.669Z,0.00
2019-04-20T03:24:55.393Z,0.00
2019-04-20T03:25:55.667Z,0.00
2019-04-20T03:26:55.988Z,0.00
2019-04-20T03:27:47.388Z,0.00
2019-04-20T03:28:50.140Z,0.00
2019-04-20T03:29:52.563Z,0.00
2019-04-20T03:31:36.795Z,0.00
2019-04-20T03:33:20.996Z,0.00
2019-04-20T03:34:15.265Z,0.00
2019-04-20T03:35:12.067Z,0.00
2019-04-20T03:36:07.302Z,0.00
2019-04-20T03:36:59.254Z,0.00
2019-04-20T03:37:55.375Z,0.00
2019-04-20T03:38:47.911Z,0.00
2019-04-20T03:39:47.625Z,0.00
2019-04-20T03:40:47.728Z,0.00
2019-04-20T03:41:39.442Z,0.00
2019-04-20T03:42:33.058Z,0.00
2019-04-20T03:43:32.877Z,0.00
2019-04-20T03:44:35.704Z,0.00
2019-04-20T03:45:41.616Z,0.00
2019-04-20T03:46:41.917Z,0.00
2019-04-20T03:47:43.747Z,0.00
2019-04-20T03:48:48.383Z,0.00
2019-04-20T03:49:55.040Z,0.00
2019-04-20T03:50:51.111Z,0.00
2019-04-20T03:51:53.449Z,0.00
2019-04-20T03:52:58.447Z,0.00
2019-04-20T03:53:50.219Z,0.00
2019-04-20T03:54:43.436Z,0.00
2019-04-20T03:55:51.282Z,0.00
2019-04-20T03:56:49.135Z,0.00
2019-04-20T03:57:52.948Z,0.00
2019-04-20T03:58:47.259Z,0.00
2019-04-20T03:59:56.105Z,0.00
2019-04-20T04:00:50.489Z,0.00
2019-04-20T04:02:25.145Z,0.00
2019-04-20T04:03:01.447Z,0.00
2019-04-20T04:04:03.567Z,0.00
2019-04-20T04:04:52.718Z,0.00
2019-04-20T04:05:48.096Z,0.00
2019-04-20T04:06:39.052Z,0.00
2019-04-20T04:07:41.554Z,0.00
2019-04-20T04:08:38.105Z,0.00
2019-04-20T04:09:39.789Z,0.00
2019-04-20T04:10:52.426Z,0.00
2019-04-20T04:11:48.561Z,0.00
2019-04-20T04:12:37.147Z,0.00
2019-04-20T04:13:33.528Z,5.62
2019-04-20T04:14:32.507Z,5.62
2019-04-20T04:15:36.170Z,5.62
2019-04-20T04:16:37.270Z,5.62
2019-04-20T04:17:38.383Z,5.62
2019-04-20T04:18:38.688Z,5.62
2019-04-20T04:19:36.647Z,5.62
2019-04-20T04:20:38.751Z,11.25
2019-04-20T04:21:49.889Z,11.25
2019-04-20T04:22:50.313Z,11.25
2019-04-20T04:23:49.104Z,11.25
2019-04-20T04:24:52.468Z,11.25
2019-04-20T04:25:48.002Z,16.88
2019-04-20T04:26:49.992Z,16.88
2019-04-20T04:27:51.971Z,16.88
2019-04-20T04:28:47.511Z,16.88
2019-04-20T04:29:51.258Z,16.88
2019-04-20T04:30:53.425Z,22.50
2019-04-20T04:31:59.821Z,22.50
2019-04-20T04:33:20.109Z,22.50
2019-04-20T04:33:57.089Z,28.12
2019-04-20T04:34:48.568Z,28.12
2019-04-20T04:35:48.380Z,28.12
2019-04-20T04:36:56.120Z,33.75
2019-04-20T04:37:48.530Z,33.75
2019-04-20T04:38:53.468Z,33.75
2019-04-20T04:39:56.047Z,33.75
2019-04-20T04:41:04.339Z,39.38
2019-04-20T04:42:05.226Z,39.38
2019-04-20T04:42:53.528Z,39.38
2019-04-20T04:43:49.539Z,45.00
2019-04-20T04:44:43.540Z,45.00
2019-04-20T04:45:33.577Z,50.62
2019-04-20T04:46:33.916Z,50.62
2019-04-20T04:47:32.642Z,50.62
2019-04-20T04:48:36.645Z,56.25
2019-04-20T04:49:36.559Z,56.25
2019-04-20T04:50:33.176Z,56.25
2019-04-20T04:51:42.622Z,61.88
2019-04-20T04:52:44.665Z,61.88
2019-04-20T04:53:46.680Z,61.88
2019-04-20T04:54:43.524Z,67.50
2019-04-20T04:55:41.712Z,67.50
2019-04-20T04:56:32.019Z,73.12
2019-04-20T04:57:32.675Z,73.12
2019-04-20T04:58:31.972Z,73.12
2019-04-20T04:59:31.764Z,78.75
2019-04-20T05:00:34.226Z,78.75
2019-04-20T05:01:33.737Z,84.38
2019-04-20T05:02:40.463Z,84.38
2019-04-20T05:03:58.266Z,84.38
2019-04-20T05:04:57.930Z,90.00
2019-04-20T05:06:53.666Z,95.62
2019-04-20T05:07:54.371Z,95.62
2019-04-20T05:08:47.428Z,95.62
2019-04-20T05:09:42.907Z,101.25
2019-04-20T05:10:41.820Z,101.25
2019-04-20T05:11:42.734Z,106.88
2019-04-20T05:12:42.233Z,106.88
2019-04-20T05:13:48.877Z,106.88
2019-04-20T05:14:53.693Z,112.50
2019-04-20T05:15:52.560Z,112.50
2019-04-20T05:16:58.023Z,118.12
2019-04-20T05:18:01.556Z,118.12
2019-04-20T05:19:03.403Z,123.75
2019-04-20T05:20:08.553Z,123.75
2019-04-20T05:21:04.451Z,123.75
2019-04-20T05:22:03.995Z,129.38
2019-04-20T05:23:02.574Z,129.38
2019-04-20T05:23:59.321Z,135.00
2019-04-20T05:25:02.104Z,135.00
2019-04-20T05:26:10.077Z,135.00
2019-04-20T05:27:03.078Z,151.88
2019-04-20T05:28:01.751Z,208.12
2019-04-20T05:28:51.333Z,270.00
2019-04-20T05:29:42.807Z,303.75
2019-04-20T05:30:46.800Z,309.38
2019-04-20T05:31:49.350Z,315.00
2019-04-20T05:32:52.454Z,320.62
2019-04-20T05:34:08.507Z,326.25
2019-04-20T05:35:07.302Z,331.88
2019-04-20T05:36:03.066Z,337.50
2019-04-20T05:36:56.873Z,343.12
2019-04-20T05:38:07.051Z,348.75
2019-04-20T05:39:13.184Z,348.75
2019-04-20T05:40:04.407Z,354.38
2019-04-20T05:41:04.649Z,360.00
2019-04-20T05:41:58.164Z,365.62
2019-04-20T05:42:59.502Z,365.62
2019-04-20T05:43:57.887Z,371.25
2019-04-20T05:44:58.712Z,376.88
2019-04-20T05:45:55.582Z,382.50
2019-04-20T05:47:01.030Z,382.50
2019-04-20T05:47:59.215Z,388.12
2019-04-20T05:49:03.288Z,393.75
2019-04-20T05:49:56.986Z,393.75
2019-04-20T05:50:57.693Z,455.62
2019-04-20T05:52:04.158Z,658.12
2019-04-20T05:53:07.465Z,731.25
2019-04-20T05:54:05.625Z,641.25
2019-04-20T05:55:02.781Z,618.75
2019-04-20T05:56:01.023Z,618.75
2019-04-20T05:57:05.161Z,613.12
2019-04-20T05:58:04.748Z,630.00
2019-04-20T05:58:59.629Z,652.50
2019-04-20T06:00:20.199Z,630.00
2019-04-20T06:01:06.743Z,618.75
2019-04-20T06:02:05.033Z,675.00
2019-04-20T06:02:57.827Z,691.88
2019-04-20T06:03:58.081Z,669.38
2019-04-20T06:05:05.313Z,686.25
2019-04-20T06:06:05.169Z,736.88
2019-04-20T06:07:04.029Z,731.25
2019-04-20T06:08:00.697Z,720.00
2019-04-20T06:09:06.904Z,748.12
2019-04-20T06:10:09.438Z,765.00
2019-04-20T06:11:02.562Z,781.88
2019-04-20T06:13:00.204Z,720.00
2019-04-20T06:13:50.598Z,798.75
2019-04-20T06:14:55.880Z,860.62
2019-04-20T06:16:02.515Z,871.88
2019-04-20T06:17:01.925Z,911.25
2019-04-20T06:17:59.731Z,922.50
2019-04-20T06:19:06.379Z,911.25
2019-04-20T06:20:05.242Z,933.75
2019-04-20T06:21:00.079Z,916.88
2019-04-20T06:22:03.762Z,945.00
2019-04-20T06:23:08.233Z,1023.75
2019-04-20T06:24:02.743Z,1012.50
2019-04-20T06:25:14.523Z,928.12
2019-04-20T06:26:13.411Z,916.88
2019-04-20T06:27:04.771Z,1018.12
2019-04-20T06:28:02.330Z,1102.50
2019-04-20T06:28:55.271Z,1068.75
2019-04-20T06:29:55.753Z,1006.88
2019-04-20T06:30:53.944Z,1035.00
2019-04-20T06:32:05.229Z,1170.00
2019-04-20T06:33:11.482Z,1265.62
2019-04-20T06:35:02.738Z,1018.12
2019-04-20T06:36:15.029Z,928.12
2019-04-20T06:37:02.860Z,1085.62
2019-04-20T06:38:10.270Z,1299.38
2019-04-20T06:40:10.746Z,1181.25
2019-04-20T06:41:14.245Z,1125.00
2019-04-20T06:43:05.465Z,1265.62
2019-04-20T06:44:08.190Z,1305.00
2019-04-20T06:45:04.469Z,1276.88
2019-04-20T06:46:09.775Z,1271.25
2019-04-20T06:47:18.877Z,1288.12
2019-04-20T06:48:06.199Z,1276.88
2019-04-20T06:49:11.851Z,1254.38
2019-04-20T06:50:01.266Z,1305.00
2019-04-20T06:50:57.121Z,1378.12
2019-04-20T06:52:11.159Z,1389.38
2019-04-20T06:53:01.896Z,1383.75
2019-04-20T06:53:52.536Z,1428.75
2019-04-20T06:55:00.267Z,1468.12
2019-04-20T06:56:06.881Z,1462.50
2019-04-20T06:57:01.740Z,1445.62
2019-04-20T06:58:01.287Z,1445.62
2019-04-20T06:59:08.191Z,1434.38
2019-04-20T07:00:01.208Z,1355.62
2019-04-20T07:01:03.767Z,1293.75
2019-04-20T07:02:14.884Z,1338.75
2019-04-20T07:02:59.300Z,1417.50
2019-04-20T07:04:21.170Z,1501.88
2019-04-20T07:04:59.982Z,1614.38
2019-04-20T07:06:06.106Z,1642.50
2019-04-20T07:08:27.431Z,1434.38
2019-04-20T07:09:17.930Z,1423.12
2019-04-20T07:11:14.720Z,1473.75
2019-04-20T07:12:11.366Z,1552.50
2019-04-20T07:13:06.283Z,1659.38
2019-04-20T07:13:59.602Z,1676.25
2019-04-20T07:15:00.088Z,1614.38
2019-04-20T07:16:13.723Z,1546.88
2019-04-20T07:17:17.940Z,1518.75
2019-04-20T07:18:26.478Z,1535.62
2019-04-20T07:19:12.817Z,1575.00
2019-04-20T07:20:14.589Z,1648.12
2019-04-20T07:21:28.341Z,1721.25
2019-04-20T07:22:25.385Z,1749.38
2019-04-20T07:24:17.342Z,1642.50
2019-04-20T07:25:16.068Z,1603.12
2019-04-20T07:26:16.817Z,1665.00
2019-04-20T07:27:14.914Z,1771.88
2019-04-20T07:28:14.443Z,1878.75
2019-04-20T07:29:19.437Z,1901.25
2019-04-20T07:30:14.993Z,1861.88
2019-04-20T07:31:08.458Z,1805.62
2019-04-20T07:32:06.413Z,1788.75
2019-04-20T07:33:18.652Z,1833.75
2019-04-20T07:34:10.486Z,1895.62
2019-04-20T07:35:09.817Z,1912.50
2019-04-20T07:36:16.954Z,1828.12
2019-04-20T07:37:40.719Z,1726.88
2019-04-20T07:39:13.530Z,1676.25
2019-04-20T07:40:10.465Z,1788.75
2019-04-20T07:41:17.536Z,1878.75
2019-04-20T07:42:16.567Z,1918.12
2019-04-20T07:43:07.945Z,1963.12
2019-04-20T07:44:10.793Z,1985.62
2019-04-20T07:45:19.607Z,1951.88
2019-04-20T07:46:24.913Z,1839.38
2019-04-20T07:47:13.718Z,1743.75
2019-04-20T07:49:12.858Z,1839.38
2019-04-20T07:50:12.046Z,1895.62
2019-04-20T07:51:02.706Z,1923.75
2019-04-20T07:51:51.095Z,1929.38
2019-04-20T07:53:04.452Z,1935.00
2019-04-20T07:54:21.950Z,1946.25
2019-04-20T07:55:28.533Z,1951.88
2019-04-20T07:56:11.612Z,2002.50
2019-04-20T07:57:12.733Z,2064.38
2019-04-20T07:58:07.684Z,2098.12
2019-04-20T07:58:57.280Z,2092.50
2019-04-20T08:00:08.445Z,2064.38
2019-04-20T08:01:16.578Z,2025.00
2019-04-20T08:02:21.373Z,2053.12
2019-04-20T08:03:20.436Z,2115.00
2019-04-20T08:04:08.050Z,2137.50
2019-04-20T08:05:05.987Z,2109.38
2019-04-20T08:06:01.652Z,2086.88
2019-04-20T08:06:57.850Z,2098.12
2019-04-20T08:08:02.574Z,2115.00
2019-04-20T08:09:05.705Z,2109.38
2019-04-20T08:09:57.367Z,2081.25
2019-04-20T08:11:09.807Z,2025.00
2019-04-20T08:12:11.775Z,1980.00
2019-04-20T08:13:19.630Z,2008.12
2019-04-20T08:14:13.321Z,2030.62
2019-04-20T08:15:16.609Z,2041.88
2019-04-20T08:16:14.687Z,2058.75
2019-04-20T08:18:06.388Z,2182.50
2019-04-20T08:19:04.165Z,2266.88
2019-04-20T08:20:09.421Z,2266.88
2019-04-20T08:21:10.105Z,2188.12
2019-04-20T08:22:15.527Z,2092.50
2019-04-20T08:23:12.367Z,2019.38
2019-04-20T08:24:07.322Z,1957.50
2019-04-20T08:25:04.647Z,1935.00
2019-04-20T08:26:00.371Z,1957.50
2019-04-20T08:26:55.740Z,2013.75
2019-04-20T08:27:50.854Z,2103.75
2019-04-20T08:28:56.980Z,2205.00
2019-04-20T08:30:03.020Z,2283.75
2019-04-20T08:31:06.670Z,2306.25
2019-04-20T08:32:13.041Z,2306.25
2019-04-20T08:33:04.147Z,2323.12
2019-04-20T08:34:28.147Z,2311.88
2019-04-20T08:35:14.340Z,2261.25
2019-04-20T08:36:11.051Z,2272.50
2019-04-20T08:37:09.793Z,2323.12
2019-04-20T08:38:47.242Z,2385.00
2019-04-20T08:39:24.541Z,2424.38
2019-04-20T08:40:13.225Z,2407.50
2019-04-20T08:41:09.687Z,2340.00
2019-04-20T08:42:11.715Z,2300.62
2019-04-20T08:43:23.959Z,2340.00
2019-04-20T08:45:32.923Z,2480.62
2019-04-20T08:46:11.532Z,2491.88
2019-04-20T08:47:33.633Z,2435.62
2019-04-20T08:48:17.373Z,2368.12
2019-04-20T08:49:13.202Z,2340.00
2019-04-20T08:50:16.533Z,2356.88
2019-04-20T08:51:07.355Z,2368.12
2019-04-20T08:52:22.911Z,2385.00
2019-04-20T08:53:20.693Z,2407.50
2019-04-20T08:54:11.209Z,2435.62
2019-04-20T08:55:04.912Z,2475.00
2019-04-20T08:56:04.942Z,2486.25
2019-04-20T08:56:56.423Z,2446.88
2019-04-20T08:57:49.547Z,2401.88
2019-04-20T08:58:50.730Z,2351.25
2019-04-20T08:59:51.032Z,2340.00
2019-04-20T09:00:56.545Z,2368.12
2019-04-20T09:01:49.495Z,2413.12
2019-04-20T09:02:56.369Z,2458.12
2019-04-20T09:04:00.199Z,2463.75
2019-04-20T09:04:58.299Z,2458.12
2019-04-20T09:05:59.519Z,2469.38
2019-04-20T09:07:02.383Z,2463.75
2019-04-20T09:09:29.332Z,2514.38
2019-04-20T09:10:25.621Z,2570.62
2019-04-20T09:11:14.379Z,2581.88
2019-04-20T09:12:16.360Z,2514.38
2019-04-20T09:13:11.442Z,2430.00
2019-04-20T09:14:02.591Z,2396.25
2019-04-20T09:14:59.546Z,2390.62
2019-04-20T09:15:59.975Z,2418.75
2019-04-20T09:17:06.872Z,2525.62
2019-04-20T09:18:03.743Z,2598.75
2019-04-20T09:19:06.078Z,2638.12
2019-04-20T09:20:09.628Z,2615.62
2019-04-20T09:21:06.840Z,2604.38
2019-04-20T09:22:14.754Z,2604.38
2019-04-20T09:23:16.706Z,2587.50
2019-04-20T09:24:23.842Z,2570.62
2019-04-20T09:25:27.813Z,2576.25
2019-04-20T09:26:14.964Z,2593.12
2019-04-20T09:27:08.832Z,2626.88
2019-04-20T09:28:11.638Z,2660.62
2019-04-20T09:29:12.729Z,2660.62
2019-04-20T09:30:11.736Z,2649.38
2019-04-20T09:31:15.769Z,2632.50
2019-04-20T09:32:16.772Z,2581.88
2019-04-20T09:33:20.760Z,2508.75
2019-04-20T09:34:42.646Z,2458.12
2019-04-20T09:35:20.889Z,2491.88
2019-04-20T09:36:15.486Z,2548.12
2019-04-20T09:37:22.458Z,2615.62
2019-04-20T09:38:15.489Z,2677.50
2019-04-20T09:39:11.511Z,2722.50
2019-04-20T09:40:16.350Z,2739.38
2019-04-20T09:41:21.989Z,2728.12
2019-04-20T09:42:01.129Z,2711.25
2019-04-20T09:43:00.232Z,2666.25
2019-04-20T09:44:00.382Z,2615.62
2019-04-20T09:45:02.833Z,2604.38
2019-04-20T09:46:04.950Z,2626.88
2019-04-20T09:47:02.001Z,2666.25
2019-04-20T09:48:00.568Z,2694.38
2019-04-20T09:49:07.825Z,2671.88
2019-04-20T09:50:16.629Z,2621.25
2019-04-20T09:51:21.851Z,2559.38
2019-04-20T09:52:13.311Z,2508.75
2019-04-20T09:53:18.344Z,2469.38
2019-04-20T09:54:18.673Z,2475.00
2019-04-20T09:55:14.569Z,2531.25
2019-04-20T09:56:18.143Z,2570.62
2019-04-20T09:57:20.551Z,2587.50
2019-04-20T09:58:12.326Z,2570.62
2019-04-20T09:59:16.604Z,2548.12
2019-04-20T10:00:16.750Z,2542.50
2019-04-20T10:01:13.271Z,2553.75
2019-04-20T10:02:06.683Z,2565.00
2019-04-20T10:03:00.316Z,2570.62
2019-04-20T10:03:59.352Z,2559.38
2019-04-20T10:04:59.753Z,2581.88
2019-04-20T10:05:59.323Z,2632.50
2019-04-20T10:07:05.890Z,2660.62
2019-04-20T10:08:04.422Z,2660.62
2019-04-20T10:09:01.889Z,2677.50
2019-04-20T10:09:59.957Z,2683.12
2019-04-20T10:10:59.870Z,2716.88
2019-04-20T10:11:59.683Z,2756.25
2019-04-20T10:12:58.938Z,2733.75
2019-04-20T10:13:58.946Z,2705.62
2019-04-20T10:15:06.176Z,2660.62
2019-04-20T10:15:59.698Z,2626.88
2019-04-20T10:17:00.077Z,2626.88
2019-04-20T10:17:59.555Z,2643.75
2019-04-20T10:18:58.881Z,2638.12
2019-04-20T10:20:03.453Z,2576.25
2019-04-20T10:20:59.902Z,2531.25
2019-04-20T10:21:58.832Z,2525.62
2019-04-20T10:22:58.815Z,2570.62
2019-04-20T10:23:58.976Z,2632.50
2019-04-20T10:24:58.791Z,2638.12
2019-04-20T10:25:58.798Z,2570.62
2019-04-20T10:26:58.893Z,2536.88
2019-04-20T10:27:58.771Z,2531.25
2019-04-20T10:28:59.408Z,2542.50
2019-04-20T10:30:02.253Z,2548.12
2019-04-20T10:30:59.022Z,2531.25
2019-04-20T10:32:02.625Z,2520.00
2019-04-20T10:32:59.537Z,2469.38
2019-04-20T10:33:59.754Z,2385.00
2019-04-20T10:34:58.974Z,2351.25
2019-04-20T10:35:59.431Z,2368.12
2019-04-20T10:36:59.643Z,2418.75
2019-04-20T10:37:59.756Z,2480.62
2019-04-20T10:38:58.667Z,2514.38
2019-04-20T10:39:58.630Z,2469.38
2019-04-20T10:41:08.292Z,2430.00
2019-04-20T10:42:02.113Z,2435.62
2019-04-20T10:43:00.963Z,2446.88
2019-04-20T10:43:58.796Z,2452.50
2019-04-20T10:45:00.309Z,2452.50
2019-04-20T10:45:59.031Z,2497.50
2019-04-20T10:46:58.850Z,2565.00
2019-04-20T10:47:59.037Z,2576.25
2019-04-20T10:49:02.637Z,2531.25
2019-04-20T10:49:58.911Z,2480.62
2019-04-20T10:50:58.925Z,2475.00
2019-04-20T10:51:59.835Z,2463.75
2019-04-20T10:52:59.621Z,2430.00
2019-04-20T10:53:58.475Z,2368.12
2019-04-20T10:54:58.678Z,2328.75
2019-04-20T10:55:58.453Z,2345.62
2019-04-20T10:56:59.434Z,2385.00
2019-04-20T10:57:59.656Z,2401.88
2019-04-20T10:58:58.435Z,2396.25
2019-04-20T10:59:59.631Z,2413.12
2019-04-20T11:00:59.650Z,2446.88
2019-04-20T11:01:58.396Z,2446.88
2019-04-20T11:02:59.615Z,2407.50
2019-04-20T11:03:58.721Z,2390.62
2019-04-20T11:04:58.858Z,2396.25
2019-04-20T11:05:58.589Z,2418.75
2019-04-20T11:06:58.699Z,2441.25
2019-04-20T11:07:58.770Z,2446.88
2019-04-20T11:10:15.028Z,2306.25
2019-04-20T11:11:14.622Z,2311.88
2019-04-20T11:12:08.491Z,2362.50
2019-04-20T11:13:09.633Z,2418.75
2019-04-20T11:14:19.005Z,2435.62
2019-04-20T11:15:08.505Z,2407.50
2019-04-20T11:16:08.640Z,2351.25
2019-04-20T11:17:08.783Z,2340.00
2019-04-20T11:18:09.219Z,2362.50
2019-04-20T11:19:09.428Z,2373.75
2019-04-20T11:20:09.648Z,2407.50
2019-04-20T11:21:09.195Z,2379.38
2019-04-20T11:22:08.488Z,2272.50
2019-04-20T11:23:08.540Z,2182.50
2019-04-20T11:24:08.358Z,2148.75
2019-04-20T11:25:08.427Z,2199.38
2019-04-20T11:26:08.587Z,2295.00
2019-04-20T11:27:08.321Z,2362.50
2019-04-20T11:28:08.316Z,2362.50
2019-04-20T11:29:08.435Z,2311.88
2019-04-20T11:30:08.308Z,2233.12
2019-04-20T11:31:08.320Z,2210.62
2019-04-20T11:32:09.673Z,2199.38
2019-04-20T11:33:08.260Z,2216.25
2019-04-20T11:34:08.242Z,2233.12
2019-04-20T11:35:19.961Z,2221.88
2019-04-20T11:36:09.417Z,2227.50
2019-04-20T11:37:08.883Z,2244.38
2019-04-20T11:38:10.762Z,2261.25
2019-04-20T11:39:09.102Z,2261.25
2019-04-20T11:40:08.663Z,2216.25
2019-04-20T11:41:16.498Z,2176.88
2019-04-20T11:42:08.163Z,2131.88
2019-04-20T11:43:08.150Z,2126.25
2019-04-20T11:44:09.473Z,2131.88
2019-04-20T11:45:08.776Z,2143.12
2019-04-20T11:46:08.996Z,2182.50
2019-04-20T11:47:08.521Z,2216.25
2019-04-20T11:48:09.441Z,2216.25
2019-04-20T11:49:08.088Z,2137.50
2019-04-20T11:50:09.356Z,2120.62
2019-04-20T11:51:09.426Z,2143.12
2019-04-20T11:52:08.055Z,2182.50
2019-04-20T11:53:09.083Z,2171.25
2019-04-20T11:54:08.363Z,2137.50
2019-04-20T11:55:08.494Z,2098.12
2019-04-20T11:56:15.996Z,2053.12
2019-04-20T11:57:09.004Z,1991.25
2019-04-20T11:58:08.161Z,1923.75
2019-04-20T11:59:09.331Z,1873.12
2019-04-20T12:00:08.831Z,1828.12
2019-04-20T12:01:13.505Z,1822.50
2019-04-20T12:02:09.811Z,1816.88
2019-04-20T12:03:16.298Z,1850.62
2019-04-20T12:04:20.086Z,1912.50
2019-04-20T12:05:23.293Z,1951.88
2019-04-20T12:06:08.654Z,1957.50
2019-04-20T12:07:08.895Z,1940.62
2019-04-20T12:08:09.253Z,1963.12
2019-04-20T12:09:07.869Z,2041.88
2019-04-20T12:10:12.092Z,2070.00
2019-04-20T12:11:23.071Z,2075.62
2019-04-20T12:12:21.466Z,2013.75
2019-04-20T12:13:07.994Z,1935.00
2019-04-20T12:14:07.814Z,1816.88
2019-04-20T12:15:08.649Z,1749.38
2019-04-20T12:16:07.829Z,1732.50
2019-04-20T12:17:07.994Z,1755.00
2019-04-20T12:18:07.760Z,1766.25
2019-04-20T12:19:08.606Z,1833.75
2019-04-20T12:20:08.060Z,1839.38
2019-04-20T12:21:08.560Z,1732.50
2019-04-20T12:22:07.726Z,1743.75
2019-04-20T12:23:08.522Z,1794.38
2019-04-20T12:24:07.701Z,1715.62
2019-04-20T12:25:07.955Z,1906.88
2019-04-20T12:26:08.909Z,1839.38
2019-04-20T12:27:09.021Z,1710.00
2019-04-20T12:28:07.666Z,1501.88
2019-04-20T12:29:07.939Z,1755.00
2019-04-20T12:30:07.923Z,1355.62
2019-04-20T12:31:11.894Z,1096.88
2019-04-20T12:32:09.013Z,1153.12
2019-04-20T12:33:07.623Z,1305.00
2019-04-20T12:34:08.585Z,1012.50
2019-04-20T12:35:08.579Z,928.12
2019-04-20T12:36:07.995Z,1068.75
2019-04-20T12:37:07.560Z,995.62
2019-04-20T12:38:07.550Z,821.25
2019-04-20T12:39:08.779Z,714.38
2019-04-20T12:40:07.533Z,725.62
2019-04-20T12:41:09.575Z,765.00
2019-04-20T12:42:09.473Z,686.25
2019-04-20T12:43:08.861Z,658.12
2019-04-20T12:44:07.934Z,641.25
2019-04-20T12:45:08.005Z,641.25
2019-04-20T12:46:07.717Z,652.50
2019-04-20T12:47:07.780Z,635.62
2019-04-20T12:48:08.008Z,630.00
2019-04-20T12:49:07.753Z,624.38
2019-04-20T12:50:07.690Z,618.75
2019-04-20T12:51:07.830Z,618.75
2019-04-20T12:52:08.447Z,613.12
2019-04-20T12:53:08.577Z,613.12
2019-04-20T12:54:08.770Z,601.88
2019-04-20T12:55:08.418Z,601.88
2019-04-20T12:56:08.679Z,596.25
2019-04-20T12:57:08.821Z,596.25
2019-04-20T12:58:08.272Z,596.25
2019-04-20T12:59:07.540Z,590.62